createdAt,value
2023-02-11T00:01:34.924Z,101218.83
2023-02-11T00:04:05.783Z,101223.81
2023-02-11T00:06:35.518Z,101227.45
2023-02-11T00:09:05.440Z,101233.41
2023-02-11T00:11:34.112Z,101237.40
2023-02-11T00:14:05.408Z,101232.87
2023-02-11T00:16:33.911Z,101236.39
2023-02-11T00:19:06.329Z,101239.15
2023-02-11T00:21:34.692Z,101238.01
2023-02-11T00:24:03.210Z,101232.98
2023-02-11T00:26:34.870Z,101235.83
2023-02-11T00:29:04.423Z,101241.34
2023-02-11T00:31:34.219Z,101238.30
2023-02-11T00:34:02.752Z,101234.05
2023-02-11T00:36:31.240Z,101238.88
2023-02-11T00:39:00.704Z,101239.14
2023-02-11T00:41:30.249Z,101242.35
2023-02-11T00:44:02.519Z,101240.77
2023-02-11T00:46:31.118Z,101240.48
2023-02-11T00:48:59.667Z,101240.05
2023-02-11T00:51:28.843Z,101236.85
2023-02-11T00:53:58.000Z,101230.19
2023-02-11T00:56:27.134Z,101229.04
2023-02-11T00:58:57.984Z,101224.60
2023-02-11T01:01:26.615Z,101217.95
2023-02-11T01:03:54.807Z,101215.86
2023-02-11T01:06:24.911Z,101218.42
2023-02-11T01:08:53.570Z,101215.84
2023-02-11T01:11:22.747Z,101211.86
2023-02-11T01:13:51.639Z,101213.64
2023-02-11T01:16:20.344Z,101205.76
2023-02-11T01:18:49.606Z,101198.30
2023-02-11T01:21:19.484Z,101197.96
2023-02-11T01:23:48.202Z,101198.09
2023-02-11T01:26:17.021Z,101192.09
2023-02-11T01:28:45.514Z,101189.52
2023-02-11T01:31:14.564Z,101192.71
2023-02-11T01:33:43.011Z,101191.30
2023-02-11T01:36:12.868Z,101189.48
2023-02-11T01:38:41.863Z,101190.44
2023-02-11T01:41:12.604Z,101192.33
2023-02-11T01:43:46.149Z,101189.59
2023-02-11T01:46:36.585Z,101186.22
2023-02-11T01:49:13.246Z,101180.14
2023-02-11T01:52:07.729Z,101174.20
2023-02-11T01:55:02.587Z,101168.76
2023-02-11T01:57:34.123Z,101170.52
2023-02-11T02:00:21.755Z,101170.09
2023-02-11T02:03:03.989Z,101168.34
2023-02-11T02:05:42.386Z,101168.16
2023-02-11T02:08:30.131Z,101167.38
2023-02-11T02:11:01.122Z,101169.66
2023-02-11T02:13:32.372Z,101171.79
2023-02-11T02:16:09.302Z,101170.89
2023-02-11T02:18:41.268Z,101171.80
2023-02-11T02:22:01.457Z,101168.48
2023-02-11T02:24:56.925Z,101168.05
2023-02-11T02:28:02.850Z,101164.96
2023-02-11T02:30:42.774Z,101157.63
2023-02-11T02:33:52.776Z,101154.67
2023-02-11T02:36:27.837Z,101148.32
2023-02-11T02:39:04.256Z,101147.65
2023-02-11T02:41:35.746Z,101144.30
2023-02-11T02:44:04.896Z,101141.73
2023-02-11T02:46:35.368Z,101134.41
2023-02-11T02:49:07.804Z,101133.63
2023-02-11T02:51:48.226Z,101128.33
2023-02-11T02:54:48.306Z,101127.24
2023-02-11T02:57:54.585Z,101128.25
2023-02-11T03:00:42.463Z,101128.02
2023-02-11T03:03:22.696Z,101126.99
2023-02-11T03:05:58.773Z,101123.24
2023-02-11T03:08:35.819Z,101118.17
2023-02-11T03:11:06.595Z,101115.97
2023-02-11T03:13:36.803Z,101106.50
2023-02-11T03:16:12.336Z,101108.98
2023-02-11T03:18:44.536Z,101116.23
2023-02-11T03:21:15.419Z,101116.37
2023-02-11T03:24:00.968Z,101121.39
2023-02-11T03:26:34.760Z,101119.48
2023-02-11T03:29:19.276Z,101112.87
2023-02-11T03:31:56.381Z,101112.81
2023-02-11T03:34:42.924Z,101107.36
2023-02-11T03:37:45.504Z,101105.91
2023-02-11T03:40:19.941Z,101102.20
2023-02-11T03:43:01.149Z,101102.64
2023-02-11T03:45:30.790Z,101105.19
2023-02-11T03:48:12.159Z,101107.16
2023-02-11T03:50:42.119Z,101103.92
2023-02-11T03:53:11.322Z,101110.77
2023-02-11T03:55:40.861Z,101107.88
2023-02-11T03:58:09.538Z,101105.34
2023-02-11T04:00:41.207Z,101103.47
2023-02-11T04:03:11.655Z,101100.29
2023-02-11T04:05:40.216Z,101098.26
2023-02-11T04:08:09.413Z,101099.30
2023-02-11T04:10:37.810Z,101087.85
2023-02-11T04:13:06.079Z,101086.55
2023-02-11T04:15:34.509Z,101084.50
2023-02-11T04:18:03.744Z,101087.76
2023-02-11T04:20:31.986Z,101089.22
2023-02-11T04:23:00.457Z,101093.89
2023-02-11T04:25:29.401Z,101089.02
2023-02-11T04:27:57.800Z,101088.98
2023-02-11T04:30:26.016Z,101090.11
2023-02-11T04:32:57.004Z,101089.48
2023-02-11T04:35:25.210Z,101088.44
2023-02-11T04:37:53.531Z,101088.06
2023-02-11T04:40:21.925Z,101090.95
2023-02-11T04:42:50.204Z,101092.49
2023-02-11T04:45:18.537Z,101090.86
2023-02-11T04:47:46.796Z,101087.36
2023-02-11T04:50:15.250Z,101083.66
2023-02-11T04:52:43.595Z,101085.98
2023-02-11T04:55:13.120Z,101091.61
2023-02-11T04:57:41.424Z,101080.42
2023-02-11T05:00:10.360Z,101086.94
2023-02-11T05:02:38.694Z,101087.02
2023-02-11T05:05:07.163Z,101086.04
2023-02-11T05:07:35.654Z,101085.77
2023-02-11T05:10:05.175Z,101085.35
2023-02-11T05:12:33.437Z,101083.34
2023-02-11T05:15:01.685Z,101082.37
2023-02-11T05:17:30.277Z,101076.88
2023-02-11T05:19:58.526Z,101078.41
2023-02-11T05:22:26.752Z,101069.27
2023-02-11T05:24:55.084Z,101070.05
2023-02-11T05:27:23.263Z,101073.00
2023-02-11T05:29:51.461Z,101074.06
2023-02-11T05:32:19.652Z,101076.96
2023-02-11T05:34:47.929Z,101078.70
2023-02-11T05:37:16.208Z,101081.63
2023-02-11T05:39:44.665Z,101084.66
2023-02-11T05:42:13.948Z,101085.80
2023-02-11T05:44:42.438Z,101080.98
2023-02-11T05:47:10.610Z,101089.38
2023-02-11T05:49:38.889Z,101090.94
2023-02-11T05:52:07.149Z,101089.80
2023-02-11T05:54:36.376Z,101095.48
2023-02-11T05:57:04.884Z,101101.10
2023-02-11T05:59:33.151Z,101095.85
2023-02-11T06:02:02.207Z,101099.95
2023-02-11T06:04:30.548Z,101105.70
2023-02-11T06:06:58.785Z,101099.90
2023-02-11T06:09:27.359Z,101098.89
2023-02-11T06:11:55.729Z,101100.39
2023-02-11T06:14:24.015Z,101097.48
2023-02-11T06:16:52.344Z,101098.27
2023-02-11T06:19:20.572Z,101097.93
2023-02-11T06:21:48.795Z,101094.80
2023-02-11T06:24:24.682Z,101092.28
2023-02-11T06:27:06.302Z,101085.72
2023-02-11T06:29:34.683Z,101077.16
2023-02-11T06:32:03.211Z,101077.59
2023-02-11T06:34:31.874Z,101073.63
2023-02-11T06:37:00.263Z,101072.89
2023-02-11T06:39:28.533Z,101075.36
2023-02-11T06:41:56.882Z,101082.37
2023-02-11T06:44:25.246Z,101078.52
2023-02-11T06:46:53.512Z,101078.17
2023-02-11T06:49:22.319Z,101074.98
2023-02-11T06:51:50.640Z,101072.78
2023-02-11T06:54:18.960Z,101072.83
2023-02-11T06:56:47.406Z,101067.29
2023-02-11T06:59:17.397Z,101070.43
2023-02-11T07:01:45.657Z,101070.98
2023-02-11T07:04:17.694Z,101075.36
2023-02-11T07:06:45.918Z,101072.14
2023-02-11T07:09:14.088Z,101071.61
2023-02-11T07:11:42.921Z,101075.52
2023-02-11T07:14:11.280Z,101078.07
2023-02-11T07:16:39.718Z,101069.45
2023-02-11T07:19:08.223Z,101062.27
2023-02-11T07:21:36.670Z,101058.91
2023-02-11T07:24:11.090Z,101058.58
2023-02-11T07:26:39.859Z,101054.16
2023-02-11T07:29:08.181Z,101051.58
2023-02-11T07:31:36.593Z,101046.55
2023-02-11T07:34:04.890Z,101052.02
2023-02-11T07:36:33.337Z,101050.38
2023-02-11T07:39:01.794Z,101044.24
2023-02-11T07:41:30.535Z,101041.65
2023-02-11T07:43:58.937Z,101040.13
2023-02-11T07:46:28.083Z,101036.36
2023-02-11T07:48:57.025Z,101034.02
2023-02-11T07:51:28.195Z,101030.90
2023-02-11T07:53:59.041Z,101031.14
2023-02-11T07:56:28.898Z,101031.36
2023-02-11T07:59:01.108Z,101028.86
2023-02-11T08:01:30.605Z,101024.61
2023-02-11T08:04:00.635Z,101023.11
2023-02-11T08:06:31.687Z,101021.15
2023-02-11T08:09:05.918Z,101019.90
2023-02-11T08:11:34.238Z,101021.66
2023-02-11T08:14:02.888Z,101018.75
2023-02-11T08:16:36.298Z,101017.95
2023-02-11T08:19:13.925Z,101014.81
2023-02-11T08:21:43.391Z,101014.64
2023-02-11T08:24:12.678Z,101013.53
2023-02-11T08:26:41.140Z,101009.95
2023-02-11T08:29:14.053Z,101009.20
2023-02-11T08:31:45.257Z,101012.02
2023-02-11T08:34:14.554Z,101014.27
2023-02-11T08:36:43.820Z,101014.48
2023-02-11T08:39:21.230Z,101020.48
2023-02-11T08:41:54.504Z,101017.17
2023-02-11T08:44:24.342Z,101009.98
2023-02-11T08:46:52.614Z,101006.59
2023-02-11T08:49:21.278Z,101000.16
2023-02-11T08:51:50.260Z,100993.70
2023-02-11T08:54:19.122Z,100992.64
2023-02-11T08:56:51.850Z,100990.33
2023-02-11T08:59:20.242Z,100988.81
2023-02-11T09:01:49.211Z,100988.13
2023-02-11T09:04:17.562Z,100986.95
2023-02-11T09:06:46.347Z,100984.90
2023-02-11T09:09:16.553Z,100982.46
2023-02-11T09:11:46.169Z,100979.91
2023-02-11T09:14:20.605Z,100971.34
2023-02-11T09:16:50.638Z,100968.95
2023-02-11T09:19:19.921Z,100965.36
2023-02-11T09:21:48.203Z,100965.89
2023-02-11T09:24:16.513Z,100958.25
2023-02-11T09:26:44.858Z,100958.06
2023-02-11T09:29:13.255Z,100954.89
2023-02-11T09:31:41.745Z,100951.10
2023-02-11T09:34:11.944Z,100944.76
2023-02-11T09:36:41.628Z,100937.64
2023-02-11T09:39:14.769Z,100928.03
2023-02-11T09:42:14.239Z,100926.38
2023-02-11T09:44:46.087Z,100923.60
2023-02-11T09:47:39.937Z,100922.52
2023-02-11T09:50:14.750Z,100923.00
2023-02-11T09:52:52.882Z,100917.96
2023-02-11T09:55:31.117Z,100907.73
2023-02-11T09:57:59.372Z,100906.59
2023-02-11T10:00:49.849Z,100900.83
2023-02-11T10:03:23.739Z,100896.33
2023-02-11T10:06:13.045Z,100885.88
2023-02-11T10:08:53.844Z,100866.85
2023-02-11T10:11:34.618Z,100857.48
2023-02-11T10:14:21.618Z,100844.68
2023-02-11T10:17:14.835Z,100838.21
2023-02-11T10:20:11.368Z,100828.95
2023-02-11T10:22:52.683Z,100829.33
2023-02-11T10:25:45.447Z,100823.48
2023-02-11T10:28:20.521Z,100817.05
2023-02-11T10:31:02.298Z,100812.02
2023-02-11T10:33:51.628Z,100802.55
2023-02-11T10:36:24.392Z,100797.98
2023-02-11T10:38:52.674Z,100799.09
2023-02-11T10:41:26.371Z,100794.25
2023-02-11T10:43:55.583Z,100777.66
2023-02-11T10:46:31.678Z,100765.02
2023-02-11T10:49:00.460Z,100762.73
2023-02-11T10:51:33.712Z,100762.17
2023-02-11T10:54:05.399Z,100751.95
2023-02-11T10:56:36.725Z,100748.48
2023-02-11T10:59:19.776Z,100747.18
2023-02-11T11:02:06.137Z,100742.63
2023-02-11T11:04:45.114Z,100745.42
2023-02-11T11:07:30.218Z,100738.90
2023-02-11T11:10:04.235Z,100733.66
2023-02-11T11:12:35.297Z,100724.27
2023-02-11T11:15:19.012Z,100715.84
2023-02-11T11:17:49.434Z,100716.56
2023-02-11T11:20:36.452Z,100719.04
2023-02-11T11:23:17.630Z,100723.83
2023-02-11T11:26:09.780Z,100722.64
2023-02-11T11:28:46.985Z,100724.75
2023-02-11T11:31:20.817Z,100714.80
2023-02-11T11:33:53.003Z,100711.16
2023-02-11T11:36:32.396Z,100705.40
2023-02-11T11:39:16.805Z,100695.15
2023-02-11T11:41:59.269Z,100696.89
2023-02-11T11:44:33.848Z,100690.32
2023-02-11T11:47:29.694Z,100685.08
2023-02-11T11:50:18.521Z,100679.56
2023-02-11T11:53:00.227Z,100685.86
2023-02-11T11:55:39.335Z,100687.84
2023-02-11T11:58:15.513Z,100684.50
2023-02-11T12:00:56.483Z,100687.04
2023-02-11T12:03:36.953Z,100682.36
2023-02-11T12:06:21.151Z,100674.61
2023-02-11T12:08:49.324Z,100660.16
2023-02-11T12:11:49.964Z,100652.60
2023-02-11T12:14:50.616Z,100651.34
2023-02-11T12:17:42.222Z,100642.11
2023-02-11T12:20:26.236Z,100639.23
2023-02-11T12:23:03.685Z,100648.50
2023-02-11T12:26:10.542Z,100643.00
2023-02-11T12:29:05.659Z,100632.67
2023-02-11T12:32:01.471Z,100618.40
2023-02-11T12:34:50.195Z,100603.10
2023-02-11T12:38:06.555Z,100588.69
2023-02-11T12:40:55.005Z,100573.13
2023-02-11T12:43:39.825Z,100568.14
2023-02-11T12:46:32.592Z,100566.77
2023-02-11T12:49:22.327Z,100562.69
2023-02-11T12:52:12.867Z,100555.21
2023-02-11T12:54:53.585Z,100553.30
2023-02-11T12:57:26.624Z,100549.27
2023-02-11T13:00:13.972Z,100555.99
2023-02-11T13:02:56.257Z,100551.44
2023-02-11T13:05:40.991Z,100550.63
2023-02-11T13:08:30.799Z,100547.98
2023-02-11T13:11:08.113Z,100543.98
2023-02-11T13:13:46.694Z,100547.36
2023-02-11T13:16:49.912Z,100541.11
2023-02-11T13:19:27.554Z,100541.19
2023-02-11T13:22:15.010Z,100539.86
2023-02-11T13:25:21.267Z,100530.36
2023-02-11T13:28:40.125Z,100533.31
2023-02-11T13:31:13.743Z,100527.19
2023-02-11T13:33:43.395Z,100533.70
2023-02-11T13:36:57.328Z,100539.00
2023-02-11T13:39:27.955Z,100529.00
2023-02-11T13:42:04.235Z,100529.23
2023-02-11T13:44:34.642Z,100527.67
2023-02-11T13:47:07.407Z,100525.33
2023-02-11T13:49:52.049Z,100521.30
2023-02-11T13:52:37.558Z,100521.87
2023-02-11T13:55:40.241Z,100521.30
2023-02-11T13:58:14.535Z,100514.73
2023-02-11T14:00:47.548Z,100514.27
2023-02-11T14:03:46.028Z,100507.52
2023-02-11T14:06:43.507Z,100505.88
2023-02-11T14:09:17.398Z,100512.88
2023-02-11T14:12:15.402Z,100521.19
2023-02-11T14:15:23.410Z,100526.17
2023-02-11T14:17:52.598Z,100531.23
2023-02-11T14:20:43.410Z,100527.77
2023-02-11T14:23:27.476Z,100528.36
2023-02-11T14:26:08.213Z,100530.31
2023-02-11T14:28:38.961Z,100525.09
2023-02-11T14:31:22.151Z,100521.94
2023-02-11T14:34:23.172Z,100520.23
2023-02-11T14:37:23.370Z,100520.77
2023-02-11T14:40:32.069Z,100527.83
2023-02-11T14:43:18.211Z,100526.44
2023-02-11T14:45:53.913Z,100524.40
2023-02-11T14:48:38.673Z,100527.48
2023-02-11T14:51:15.766Z,100526.11
2023-02-11T14:54:06.597Z,100524.23
2023-02-11T14:56:36.391Z,100521.79
2023-02-11T14:59:18.154Z,100517.24
2023-02-11T15:01:51.472Z,100510.45
2023-02-11T15:04:36.158Z,100505.98
2023-02-11T15:07:11.945Z,100503.41
2023-02-11T15:09:54.067Z,100495.38
2023-02-11T15:12:27.860Z,100490.43
2023-02-11T15:14:58.707Z,100488.08
2023-02-11T15:17:32.021Z,100490.01
2023-02-11T15:20:02.991Z,100482.95
2023-02-11T15:22:37.095Z,100487.99
2023-02-11T15:25:19.174Z,100488.06
2023-02-11T15:27:53.192Z,100488.84
2023-02-11T15:30:21.428Z,100481.96
2023-02-11T15:33:00.011Z,100480.00
2023-02-11T15:35:35.265Z,100483.71
2023-02-11T15:38:04.719Z,100482.81
2023-02-11T15:40:36.331Z,100484.27
2023-02-11T15:43:07.853Z,100491.59
2023-02-11T15:45:56.880Z,100496.05
2023-02-11T15:48:36.698Z,100494.28
2023-02-11T15:51:28.715Z,100493.63
2023-02-11T15:54:16.284Z,100495.54
2023-02-11T15:56:48.654Z,100508.33
2023-02-11T15:59:34.984Z,100510.20
2023-02-11T16:02:10.253Z,100509.86
2023-02-11T16:04:38.674Z,100512.80
2023-02-11T16:07:06.956Z,100507.21
2023-02-11T16:09:37.121Z,100505.62
2023-02-11T16:12:27.167Z,100500.02
2023-02-11T16:14:59.771Z,100508.92
2023-02-11T16:17:29.841Z,100511.80
2023-02-11T16:19:58.536Z,100515.03
2023-02-11T16:22:35.563Z,100516.70
2023-02-11T16:25:04.139Z,100517.69
2023-02-11T16:27:41.715Z,100519.95
2023-02-11T16:30:34.905Z,100516.59
2023-02-11T16:33:05.508Z,100507.56
2023-02-11T16:35:33.907Z,100510.34
2023-02-11T16:38:02.313Z,100506.14
2023-02-11T16:40:30.681Z,100499.37
2023-02-11T16:42:59.363Z,100499.27
2023-02-11T16:45:30.779Z,100501.19
2023-02-11T16:48:00.725Z,100496.67
2023-02-11T16:50:30.021Z,100497.59
2023-02-11T16:52:59.625Z,100496.63
2023-02-11T16:55:32.644Z,100484.73
2023-02-11T16:58:01.098Z,100475.98
2023-02-11T17:00:30.107Z,100472.92
2023-02-11T17:02:58.447Z,100464.43
2023-02-11T17:05:27.261Z,100453.18
2023-02-11T17:07:55.442Z,100442.30
2023-02-11T17:10:24.850Z,100433.85
2023-02-11T17:12:53.583Z,100430.52
2023-02-11T17:15:22.075Z,100431.18
2023-02-11T17:17:52.878Z,100424.94
2023-02-11T17:20:21.307Z,100419.98
2023-02-11T17:22:50.129Z,100420.83
2023-02-11T17:25:18.908Z,100425.14
2023-02-11T17:27:47.273Z,100433.43
2023-02-11T17:30:15.738Z,100434.54
2023-02-11T17:32:44.489Z,100432.93
2023-02-11T17:35:12.824Z,100429.73
2023-02-11T17:37:41.258Z,100419.81
2023-02-11T17:40:10.501Z,100422.16
2023-02-11T17:42:38.997Z,100423.86
2023-02-11T17:45:08.598Z,100418.22
2023-02-11T17:47:36.939Z,100417.35
2023-02-11T17:50:05.696Z,100415.08
2023-02-11T17:52:34.154Z,100411.67
2023-02-11T17:55:02.638Z,100412.87
2023-02-11T17:57:33.049Z,100408.02
2023-02-11T18:00:05.941Z,100406.00
2023-02-11T18:02:40.970Z,100420.34
2023-02-11T18:05:10.244Z,100431.30
2023-02-11T18:07:38.701Z,100425.48
2023-02-11T18:10:08.497Z,100422.04
2023-02-11T18:12:37.017Z,100429.30
2023-02-11T18:15:05.652Z,100423.73
2023-02-11T18:17:33.830Z,100406.45
2023-02-11T18:20:03.647Z,100404.16
2023-02-11T18:22:38.628Z,100405.40
2023-02-11T18:25:08.832Z,100397.73
2023-02-11T18:27:37.385Z,100384.90
2023-02-11T18:30:07.148Z,100377.35
2023-02-11T18:32:35.499Z,100383.98
2023-02-11T18:35:14.821Z,100383.89
2023-02-11T18:37:43.402Z,100385.54
2023-02-11T18:40:12.895Z,100384.27
2023-02-11T18:42:41.745Z,100388.89
2023-02-11T18:45:12.783Z,100397.27
2023-02-11T18:47:41.546Z,100405.01
2023-02-11T18:50:11.397Z,100410.42
2023-02-11T18:52:47.106Z,100413.88
2023-02-11T18:55:16.343Z,100414.84
2023-02-11T18:57:44.356Z,100408.32
2023-02-11T19:00:13.494Z,100409.85
2023-02-11T19:02:42.560Z,100416.22
2023-02-11T19:05:11.576Z,100422.64
2023-02-11T19:07:42.496Z,100422.14
2023-02-11T19:10:11.286Z,100424.27
2023-02-11T19:12:39.618Z,100427.30
2023-02-11T19:15:11.642Z,100437.68
2023-02-11T19:17:40.616Z,100441.61
2023-02-11T19:20:09.161Z,100438.60
2023-02-11T19:22:37.409Z,100441.35
2023-02-11T19:25:07.238Z,100436.98
2023-02-11T19:27:35.772Z,100433.05
2023-02-11T19:30:08.358Z,100428.00
2023-02-11T19:32:36.689Z,100429.73
2023-02-11T19:35:05.075Z,100429.63
2023-02-11T19:37:33.472Z,100426.11
2023-02-11T19:40:01.760Z,100426.81
2023-02-11T19:42:30.252Z,100427.52
2023-02-11T19:44:58.779Z,100419.20
2023-02-11T19:47:27.998Z,100422.96
2023-02-11T19:49:56.411Z,100426.00
2023-02-11T19:52:27.512Z,100427.77
2023-02-11T19:54:56.214Z,100423.84
2023-02-11T19:57:24.530Z,100429.02
2023-02-11T19:59:55.034Z,100433.27
2023-02-11T20:02:25.911Z,100429.02
2023-02-11T20:04:54.213Z,100427.31
2023-02-11T20:07:22.396Z,100430.18
2023-02-11T20:09:51.056Z,100425.80
2023-02-11T20:12:19.305Z,100424.54
2023-02-11T20:14:47.587Z,100419.91
2023-02-11T20:17:15.764Z,100417.73
2023-02-11T20:19:43.975Z,100414.45
2023-02-11T20:22:12.378Z,100414.95
2023-02-11T20:24:40.746Z,100416.74
2023-02-11T20:27:12.449Z,100412.82
2023-02-11T20:29:40.815Z,100405.65
2023-02-11T20:32:11.537Z,100407.80
2023-02-11T20:34:40.104Z,100397.41
2023-02-11T20:37:11.190Z,100399.09
2023-02-11T20:39:41.946Z,100391.86
2023-02-11T20:42:15.029Z,100391.09
2023-02-11T20:44:43.555Z,100402.98
2023-02-11T20:47:12.873Z,100399.38
2023-02-11T20:49:41.162Z,100391.75
2023-02-11T20:52:09.751Z,100380.28
2023-02-11T20:54:38.134Z,100389.94
2023-02-11T20:57:07.330Z,100390.43
2023-02-11T20:59:35.772Z,100396.52
2023-02-11T21:02:06.832Z,100397.36
2023-02-11T21:04:35.546Z,100403.48
2023-02-11T21:07:03.792Z,100403.00
2023-02-11T21:09:33.427Z,100397.05
2023-02-11T21:12:02.982Z,100399.77
2023-02-11T21:14:31.333Z,100396.28
2023-02-11T21:16:59.979Z,100396.36
2023-02-11T21:19:28.371Z,100393.15
2023-02-11T21:22:00.673Z,100387.41
2023-02-11T21:24:30.921Z,100385.60
2023-02-11T21:26:59.658Z,100380.93
2023-02-11T21:29:28.053Z,100375.64
2023-02-11T21:31:56.552Z,100371.34
2023-02-11T21:34:25.061Z,100370.04
2023-02-11T21:36:53.344Z,100369.16
2023-02-11T21:39:21.987Z,100366.48
2023-02-11T21:41:51.696Z,100351.66
2023-02-11T21:44:20.161Z,100355.79
2023-02-11T21:46:48.572Z,100353.89
2023-02-11T21:49:21.442Z,100353.52
2023-02-11T21:51:54.964Z,100356.11
2023-02-11T21:54:25.880Z,100353.34
2023-02-11T21:56:54.701Z,100346.52
2023-02-11T21:59:23.062Z,100348.11
2023-02-11T22:01:51.401Z,100343.31
2023-02-11T22:04:20.081Z,100342.13
2023-02-11T22:06:48.288Z,100343.29
2023-02-11T22:09:16.603Z,100345.11
2023-02-11T22:11:44.962Z,100338.30
2023-02-11T22:14:13.249Z,100347.29
2023-02-11T22:16:41.590Z,100351.34
2023-02-11T22:19:10.281Z,100348.07
2023-02-11T22:21:38.835Z,100346.48
2023-02-11T22:24:09.598Z,100344.40
2023-02-11T22:26:40.233Z,100346.61
2023-02-11T22:29:12.444Z,100343.21
2023-02-11T22:31:43.666Z,100342.83
2023-02-11T22:34:12.505Z,100345.60
2023-02-11T22:36:42.406Z,100352.35
2023-02-11T22:39:18.729Z,100358.37
2023-02-11T22:41:47.898Z,100362.41
2023-02-11T22:44:17.325Z,100363.63
2023-02-11T22:46:46.290Z,100363.95
2023-02-11T22:49:16.508Z,100361.90
2023-02-11T22:51:44.880Z,100356.21
2023-02-11T22:54:17.282Z,100353.66
2023-02-11T22:56:49.628Z,100355.35
2023-02-11T22:59:18.956Z,100351.61
2023-02-11T23:01:47.341Z,100343.67
2023-02-11T23:04:17.150Z,100347.09
2023-02-11T23:06:47.684Z,100351.00
2023-02-11T23:09:16.120Z,100351.25
2023-02-11T23:11:48.601Z,100345.27
2023-02-11T23:14:19.115Z,100346.98
2023-02-11T23:16:50.710Z,100340.48
2023-02-11T23:19:20.068Z,100336.06
2023-02-11T23:21:51.574Z,100326.14
2023-02-11T23:24:19.968Z,100320.36
2023-02-11T23:26:48.405Z,100318.19
2023-02-11T23:29:17.232Z,100314.05
2023-02-11T23:31:46.614Z,100311.40
2023-02-11T23:34:20.419Z,100308.35
2023-02-11T23:36:52.637Z,100309.37
2023-02-11T23:39:21.225Z,100303.80
2023-02-11T23:41:52.175Z,100299.32
2023-02-11T23:44:20.538Z,100293.70
2023-02-11T23:46:48.960Z,100281.95
2023-02-11T23:49:17.256Z,100285.13
2023-02-11T23:51:45.667Z,100284.63
2023-02-11T23:54:15.291Z,100287.58
2023-02-11T23:56:43.613Z,100295.84
2023-02-11T23:59:12.437Z,100301.13
